createdAt,value
2019-02-02T19:49:08.241Z,4.76
2019-02-02T19:51:36.488Z,4.71
2019-02-02T19:54:07.548Z,4.67
2019-02-02T19:56:34.915Z,4.63
2019-02-02T19:59:03.146Z,4.62
2019-02-02T20:01:31.443Z,4.52
2019-02-02T20:03:59.667Z,4.59
2019-02-02T20:06:27.907Z,4.60
2019-02-02T20:08:56.135Z,4.60
2019-02-02T20:11:24.375Z,4.60
2019-02-02T20:13:52.833Z,4.63
2019-02-02T20:16:21.289Z,4.57
2019-02-02T20:18:49.762Z,4.69
2019-02-02T20:21:18.004Z,4.69
2019-02-02T20:23:46.461Z,4.81
2019-02-02T20:26:14.915Z,4.83
2019-02-02T20:28:43.174Z,4.85
2019-02-02T20:31:11.477Z,4.85
2019-02-02T20:33:39.710Z,4.83
2019-02-02T20:36:07.935Z,4.83
2019-02-02T20:38:36.203Z,4.95
2019-02-02T20:41:04.533Z,4.97
2019-02-02T20:43:32.762Z,4.97
2019-02-02T20:46:01.229Z,4.92
2019-02-02T20:48:29.470Z,4.92
2019-02-02T20:50:57.689Z,4.94
2019-02-02T20:53:26.163Z,5.00
2019-02-02T20:55:54.400Z,4.93
2019-02-02T20:58:22.676Z,4.93
2019-02-02T21:00:50.887Z,5.04
2019-02-02T21:03:19.125Z,5.05
2019-02-02T21:05:52.458Z,5.05
2019-02-02T21:08:17.827Z,5.00
2019-02-02T21:10:46.298Z,5.00
2019-02-02T21:13:14.546Z,4.98
2019-02-02T21:15:42.794Z,4.99
2019-02-02T21:18:11.978Z,4.99
2019-02-02T21:20:40.518Z,4.97
2019-02-02T21:23:08.724Z,5.00
2019-02-02T21:25:36.949Z,5.00
2019-02-02T21:28:05.195Z,5.03
2019-02-02T21:30:34.875Z,5.03
2019-02-02T21:33:03.620Z,5.01
2019-02-02T21:35:31.851Z,4.86
2019-02-02T21:38:00.097Z,4.86
2019-02-02T21:40:33.015Z,5.02
2019-02-02T21:43:01.504Z,4.94
2019-02-02T21:45:29.758Z,4.98
2019-02-02T21:47:58.218Z,5.01
2019-02-02T21:50:26.692Z,4.95
2019-02-02T21:52:55.200Z,5.02
2019-02-02T21:55:28.326Z,5.01
2019-02-02T21:57:56.798Z,5.01
2019-02-02T22:00:37.415Z,5.04
2019-02-02T22:03:06.684Z,5.03
2019-02-02T22:05:35.150Z,4.85
2019-02-02T22:08:03.515Z,4.85
2019-02-02T22:10:31.975Z,5.00
2019-02-02T22:13:00.427Z,5.02
2019-02-02T22:15:29.799Z,5.02
2019-02-02T22:17:58.028Z,4.80
2019-02-02T22:20:26.262Z,4.80
2019-02-02T22:22:54.516Z,4.91
2019-02-02T22:25:27.742Z,4.85
2019-02-02T22:27:56.197Z,4.89
2019-02-02T22:30:31.982Z,4.79
2019-02-02T22:33:00.530Z,4.87
2019-02-02T22:35:28.764Z,4.87
2019-02-02T22:37:57.444Z,4.84
2019-02-02T22:40:27.499Z,4.82
2019-02-02T22:42:55.949Z,4.79
2019-02-02T22:45:24.185Z,4.70
2019-02-02T22:47:52.457Z,4.70
2019-02-02T22:50:25.348Z,4.59
2019-02-02T22:52:53.834Z,4.64
2019-02-02T22:55:23.198Z,4.64
2019-02-02T22:57:51.444Z,4.65
2019-02-02T23:00:30.174Z,4.57
2019-02-02T23:02:59.119Z,4.63
2019-02-02T23:05:33.204Z,4.63
2019-02-02T23:08:04.837Z,4.63
2019-02-02T23:10:36.458Z,4.55
2019-02-02T23:13:22.982Z,4.55
2019-02-02T23:16:16.624Z,4.55
2019-02-02T23:18:46.733Z,4.55
2019-02-02T23:21:15.046Z,4.50
2019-02-02T23:23:43.277Z,4.54
2019-02-02T23:26:11.509Z,4.53
2019-02-02T23:28:39.975Z,4.72
2019-02-02T23:31:08.234Z,4.55
2019-02-02T23:33:36.841Z,4.75
2019-02-02T23:36:05.400Z,4.75
2019-02-02T23:38:33.697Z,4.75
2019-02-02T23:41:01.971Z,4.75
2019-02-02T23:43:30.199Z,4.73
2019-02-02T23:45:58.443Z,4.73
2019-02-02T23:48:27.101Z,4.70
2019-02-02T23:50:55.346Z,4.69
2019-02-02T23:53:23.836Z,4.76
2019-02-02T23:55:52.286Z,4.76
2019-02-02T23:58:20.755Z,4.74
